Toronto Pearson, Ontario

7:57 PM EDT on September 19, 2014 (GMT -0400)
Toronto-Pearson International | Change Station
CLOSE
Current Station
Airport
Location: Toronto Pearson,
Elevation: 568 ft
Nearby Weather Stations

Elev 568 ft 43.68 °N, 79.63 °W | Updated 1 hour ago

Mostly Cloudy
Mostly Cloudy
55 °F
Feels Like 55 °F
N
12
Wind Variable Wind from East

Tomorrow is forecast to be nearly the same temperature as today.

Today
High -- | Low -- °F
--% Chance of Precip.
Yesterday
High -- | Low -- °F
Precip. -- in
7:02 AM 7:21 PM
Waning Crescent, 16% visible
Pressure 30.23 in
Visibility 15.0 miles
Clouds Mostly Cloudy 23000 ft
Dew Point 43 °F
Humidity 63%
Rainfall 0.00 in
Snow Depth Not available.
UV 0 out of 12
Pollen Not available.
Air Quality Not available.
Flu Activity Not available.
METAR CYYZ 192200Z 09010KT 15SM BKN230 13/06 A3021 RMK CI6 SLP235

More Conditions Fewer Conditions

Pressure 30.23 in
Visibility 15.0 miles
Clouds Mostly Cloudy 23000 ft
Dew Point 43 °F
Humidity 63%
Rainfall 0.00 in
Snow Depth Not available.
UV 0 out of 12
Pollen Not available.
Air Quality Not available.
Flu Activity Not available.
METAR CYYZ 192200Z 09010KT 15SM BKN230 13/06 A3021 RMK CI6 SLP235

More Conditions Fewer Conditions

10-Day Weather Forecast

Almanac

Astronomy

Sep. 19, 2014 Rise Set
Actual Time 7:02 AM EDT 7:21 PM EDT
Civil Twilight 6:33 AM EDT 7:50 PM EDT
Nautical Twilight 5:59 AM EDT 8:23 PM EDT
Astronomical Twilight 5:25 AM EDT 8:58 PM EDT
Moon 2:39 AM EDT 4:54 PM EDT
Length of Visible Light 13h 16m
Length of Day
12h 19m
Tomorrow will be 2m 58s shorter.
Waning Crescent, 16% of the Moon is Illuminated
Today
Waning Crescent
Sep 24
New
Oct 1
First Quarter
Oct 8
Full
Oct 15
Last Quarter

Today's Extremes

Country Highs Country Lows

Community

WunderPhotos

Upload Photos

1,754,730 photos uploaded!

Nearby

Snow Depth

Not available.

Earthquake Activity

City Distance Mag. Time & Date
No recent earthquake activity has been reported nearby.
Minimum magnitude displayed is 2.5.

Coastal Water Temperatures

Place Temperature
No Stations Reporting

Nearby Weather Stations